Главная страница
METAR-TAF:

METAR-TAF

Аэропорты :

Самсун, Турция

широта: 41-15-15N, долгота: 036-34-03E, высота над уровнем моря: 5 м

Текущие метеонаблюдения

Эта сводка был подготовлена 31 минут назад, в 08:50 UTC
Ветер 4 Узел от северо-восточный, изменяющийся между северный и восточно-северо-восточный
Температура 13°C
Влажность 51%
Давление 1011 hPa
Видимость 10 км и более
Отдельные облака на высоте 3600 фута
Рассеянная облачность на высоте 10000 фута

METAR: LTFH 170850Z 04004KT 360V060 9999 SCT036 BKN100 13/03 Q1011 NOSIG

Время: 12:21 (09:21 UTC)

Прогноз

Эта сводка был подготовлена 1 час и 41 минут назад, в 07:40 UTC
Прогноз действительный с 17-го 09 UTC до 17-го 18 UTC
Ветер 2 Узел переменных направлений
Видимость 10 км и более
небольшая облачность на высоте 3400 фута
Рассеянная облачность на высоте 10000 фута

TAF: LTFH 170740Z 1709/1718 VRB02KT 9999 FEW034 BKN100

Метеонаблюдения и прогнозы для более 4000 аэропортов (сводки METAR и TAF).

Имеющиеся станции представлены на карте желтыми и красными точками.

Чтобы увидеть название станции, наведите на нее мышь.

Затем щелкните, чтобы увидеть метеонаблюдения и метеопрогнозы.

Управление картой: чтобы увеличить масштаб, щелкните зеленые кнопки с черным крестиком; чтобы уменьшить масштаб, щелкните зеленую кнопку с тире; для просмотра соседних карт щелкайте зеленые стрелки.


METAR-TAF: